Terminal Aerodrome Forecast
Issued by NWS

Home | Current Version | Previous Version | Text Only | Print | Product List | Glossary On
Versions: 1 2 3 4 5 6 7 8 9 10 11 12 13 14 15 16 17 18 19 20 21 22 23 24 25 26 27 28
000
FTUS43 KGRB 282300
TAFRHI
TAF
KRHI 282338Z 0100/0124 21008KT P6SM SCT120
     FM010400 20007KT P6SM SCT035 BKN060
     FM010800 22007KT P6SM -SN SCT012 BKN020 OVC040
     FM011500 24007G14KT P6SM SCT025 SCT200
     FM012100 26009KT P6SM BKN025=

USA.gov is the U.S. government's official web portal to all federal, state and local government web resources and services.